createdAt,value
2022-10-01T00:02:07.444Z,2.63
2022-10-01T00:04:36.327Z,3.42
2022-10-01T00:07:09.313Z,3.42
2022-10-01T00:09:37.024Z,2.83
2022-10-01T00:12:06.122Z,3.47
2022-10-01T00:14:33.857Z,2.72
2022-10-01T00:17:01.579Z,2.30
2022-10-01T00:19:29.439Z,2.80
2022-10-01T00:21:57.109Z,2.95
2022-10-01T00:24:24.879Z,2.75
2022-10-01T00:26:53.140Z,2.70
2022-10-01T00:29:22.247Z,2.72
2022-10-01T00:31:50.406Z,2.78
2022-10-01T00:34:18.167Z,2.55
2022-10-01T00:36:46.494Z,3.20
2022-10-01T00:39:14.760Z,3.65
2022-10-01T00:41:43.306Z,2.38
2022-10-01T00:44:34.958Z,2.50
2022-10-01T00:47:08.499Z,3.30
2022-10-01T00:49:38.668Z,2.58
2022-10-01T00:52:09.887Z,3.42
2022-10-01T00:54:42.814Z,2.67
2022-10-01T00:57:11.482Z,2.83
2022-10-01T00:59:40.749Z,3.53
2022-10-01T01:04:44.777Z,2.65
2022-10-01T01:07:13.108Z,3.85
2022-10-01T01:09:45.442Z,2.90
2022-10-01T01:12:31.880Z,3.20
2022-10-01T01:15:11.546Z,2.67
2022-10-01T01:17:49.141Z,3.03
2022-10-01T01:20:41.219Z,2.90
2022-10-01T01:23:38.894Z,3.30
2022-10-01T01:26:16.170Z,2.70
2022-10-01T01:28:48.934Z,3.47
2022-10-01T01:31:23.002Z,3.10
2022-10-01T01:33:53.031Z,3.63
2022-10-01T01:36:27.381Z,3.05
2022-10-01T01:38:59.353Z,2.67
2022-10-01T01:41:30.217Z,2.50
2022-10-01T01:44:02.221Z,2.80
2022-10-01T01:46:33.717Z,1.90
2022-10-01T01:49:04.410Z,2.45
2022-10-01T01:51:37.034Z,2.45
2022-10-01T01:54:04.893Z,1.83
2022-10-01T01:56:34.272Z,2.20
2022-10-01T01:59:04.016Z,2.00
2022-10-01T02:01:34.309Z,2.67
2022-10-01T02:04:04.736Z,2.30
2022-10-01T02:06:42.814Z,1.98
2022-10-01T02:09:22.553Z,2.72
2022-10-01T02:12:03.559Z,2.20
2022-10-01T02:14:39.487Z,2.58
2022-10-01T02:17:16.509Z,1.90
2022-10-01T02:19:55.966Z,2.20
2022-10-01T02:22:29.055Z,2.33
2022-10-01T02:25:01.533Z,3.20
2022-10-01T02:27:32.251Z,2.53
2022-10-01T02:30:08.693Z,2.80
2022-10-01T02:32:38.489Z,1.63
2022-10-01T02:35:08.105Z,2.28
2022-10-01T02:37:40.158Z,2.13
2022-10-01T02:40:14.617Z,2.55
2022-10-01T02:42:45.302Z,1.95
2022-10-01T02:45:16.972Z,1.95
2022-10-01T02:47:48.355Z,2.17
2022-10-01T02:50:16.626Z,1.90
2022-10-01T02:52:51.205Z,2.28
2022-10-01T02:55:22.243Z,2.58
2022-10-01T02:57:49.001Z,1.77
2022-10-01T03:00:21.559Z,2.13
2022-10-01T03:02:49.954Z,1.63
2022-10-01T03:05:20.787Z,1.80
2022-10-01T03:07:48.855Z,2.38
2022-10-01T03:10:17.559Z,2.17
2022-10-01T03:12:46.574Z,2.58
2022-10-01T03:15:16.049Z,2.05
2022-10-01T03:17:45.221Z,1.90
2022-10-01T03:20:13.581Z,2.38
2022-10-01T03:22:41.245Z,2.50
2022-10-01T03:25:09.907Z,2.47
2022-10-01T03:27:37.943Z,2.35
2022-10-01T03:30:09.277Z,2.70
2022-10-01T03:32:37.462Z,2.72
2022-10-01T03:35:07.462Z,2.63
2022-10-01T03:37:35.104Z,1.95
2022-10-01T03:40:03.131Z,2.55
2022-10-01T03:42:30.828Z,2.42
2022-10-01T03:44:58.492Z,2.42
2022-10-01T03:47:26.236Z,2.10
2022-10-01T03:49:53.885Z,2.42
2022-10-01T03:52:22.910Z,2.33
2022-10-01T03:54:50.608Z,2.30
2022-10-01T03:57:18.343Z,2.50
2022-10-01T03:59:45.997Z,2.15
2022-10-01T04:02:13.985Z,2.55
2022-10-01T04:04:41.764Z,1.98
2022-10-01T04:07:09.538Z,1.83
2022-10-01T04:09:38.624Z,2.17
2022-10-01T04:12:06.312Z,2.40
2022-10-01T04:14:35.319Z,2.58
2022-10-01T04:17:03.075Z,1.90
2022-10-01T04:19:33.108Z,2.53
2022-10-01T04:22:00.843Z,2.10
2022-10-01T04:24:28.532Z,2.95
2022-10-01T04:26:57.569Z,2.10
2022-10-01T04:29:25.246Z,2.72
2022-10-01T04:31:53.403Z,2.70
2022-10-01T04:34:41.290Z,2.97
2022-10-01T04:37:10.035Z,2.22
2022-10-01T04:39:37.921Z,2.42
2022-10-01T04:42:07.331Z,2.50
2022-10-01T04:44:35.393Z,3.13
2022-10-01T04:47:03.214Z,2.65
2022-10-01T04:49:33.452Z,1.98
2022-10-01T04:52:01.895Z,2.35
2022-10-01T04:54:29.638Z,2.97
2022-10-01T04:56:58.227Z,2.45
2022-10-01T04:59:27.541Z,2.65
2022-10-01T05:01:55.514Z,2.53
2022-10-01T05:04:23.290Z,2.20
2022-10-01T05:06:52.710Z,2.30
2022-10-01T05:09:20.356Z,2.58
2022-10-01T05:11:51.927Z,2.42
2022-10-01T05:14:20.779Z,1.85
2022-10-01T05:16:49.794Z,2.10
2022-10-01T05:19:17.510Z,2.00
2022-10-01T05:21:46.135Z,3.05
2022-10-01T05:24:14.176Z,2.55
2022-10-01T05:26:41.882Z,3.47
2022-10-01T05:29:10.010Z,3.10
2022-10-01T05:31:38.162Z,2.72
2022-10-01T05:34:09.054Z,2.58
2022-10-01T05:36:36.870Z,2.90
2022-10-01T05:39:04.801Z,2.33
2022-10-01T05:41:32.866Z,3.40
2022-10-01T05:44:00.849Z,2.35
2022-10-01T05:46:28.634Z,2.13
2022-10-01T05:48:56.322Z,1.77
2022-10-01T05:51:25.786Z,1.90
2022-10-01T05:53:56.204Z,2.40
2022-10-01T05:56:24.190Z,2.05
2022-10-01T05:58:52.167Z,2.90
2022-10-01T06:01:19.836Z,1.73
2022-10-01T06:03:51.209Z,2.50
2022-10-01T06:06:22.059Z,2.20
2022-10-01T06:08:51.436Z,2.28
2022-10-01T06:11:19.152Z,2.17
2022-10-01T06:13:46.875Z,3.22
2022-10-01T06:16:15.861Z,3.13
2022-10-01T06:18:43.715Z,2.17
2022-10-01T06:21:11.412Z,2.30
2022-10-01T06:23:39.116Z,2.00
2022-10-01T06:26:08.706Z,2.80
2022-10-01T06:28:36.453Z,2.60
2022-10-01T06:31:05.734Z,1.90
2022-10-01T06:33:33.454Z,2.17
2022-10-01T06:36:01.231Z,1.90
2022-10-01T06:38:28.915Z,2.45
2022-10-01T06:40:59.158Z,2.38
2022-10-01T06:43:31.244Z,2.25
2022-10-01T06:46:02.347Z,2.25
2022-10-01T06:48:31.397Z,1.65
2022-10-01T06:50:59.964Z,1.40
2022-10-01T06:53:28.179Z,2.17
2022-10-01T06:55:56.636Z,1.80
2022-10-01T06:58:26.548Z,2.13
2022-10-01T07:01:01.302Z,1.77
2022-10-01T07:03:29.429Z,1.80
2022-10-01T07:06:03.182Z,1.75
2022-10-01T07:08:31.111Z,1.90
2022-10-01T07:11:03.391Z,1.92
2022-10-01T07:13:31.294Z,1.73
2022-10-01T07:16:00.403Z,1.75
2022-10-01T07:18:28.381Z,1.77
2022-10-01T07:20:57.654Z,2.00
2022-10-01T07:23:25.595Z,2.55
2022-10-01T07:25:53.458Z,1.90
2022-10-01T07:28:25.442Z,1.70
2022-10-01T07:31:01.144Z,1.70
2022-10-01T07:33:29.140Z,2.10
2022-10-01T07:35:56.895Z,1.80
2022-10-01T07:38:24.628Z,1.90
2022-10-01T07:40:53.082Z,1.80
2022-10-01T07:43:20.887Z,2.00
2022-10-01T07:45:49.763Z,1.45
2022-10-01T07:48:19.292Z,2.08
2022-10-01T07:50:47.234Z,1.60
2022-10-01T07:53:15.178Z,1.58
2022-10-01T07:55:44.651Z,1.80
2022-10-01T07:58:12.982Z,1.52
2022-10-01T08:00:40.895Z,1.90
2022-10-01T08:03:12.673Z,1.70
2022-10-01T08:05:43.180Z,1.50
2022-10-01T08:08:10.868Z,0.98
2022-10-01T08:10:39.834Z,1.20
2022-10-01T08:13:14.334Z,2.28
2022-10-01T08:15:42.773Z,2.00
2022-10-01T08:18:11.192Z,1.08
2022-10-01T08:20:40.918Z,1.10
2022-10-01T08:23:10.251Z,1.10
2022-10-01T08:25:38.809Z,0.57
2022-10-01T08:28:07.428Z,0.57
2022-10-01T08:30:38.380Z,1.00
2022-10-01T08:33:08.118Z,1.08
2022-10-01T08:35:40.091Z,0.82
2022-10-01T08:38:09.764Z,1.00
2022-10-01T08:40:43.709Z,1.08
2022-10-01T08:43:21.402Z,0.98
2022-10-01T08:45:52.423Z,0.95
2022-10-01T08:48:31.102Z,1.00
2022-10-01T08:51:05.273Z,0.82
2022-10-01T08:53:38.683Z,0.73
2022-10-01T08:56:07.800Z,1.15
2022-10-01T08:58:45.738Z,0.55
2022-10-01T09:01:13.514Z,1.10
2022-10-01T09:03:42.121Z,0.90
2022-10-01T09:06:20.219Z,0.90
2022-10-01T09:09:15.324Z,0.85
2022-10-01T09:11:53.272Z,0.63
2022-10-01T09:14:37.415Z,0.50
2022-10-01T09:17:12.239Z,0.73
2022-10-01T09:19:57.995Z,1.17
2022-10-01T09:22:37.616Z,0.82
2022-10-01T09:25:25.926Z,1.05
2022-10-01T09:28:01.730Z,0.75
2022-10-01T09:30:30.971Z,0.68
2022-10-01T09:33:03.624Z,0.85
2022-10-01T09:35:40.348Z,1.27
2022-10-01T09:38:16.828Z,0.70
2022-10-01T09:40:53.428Z,0.95
2022-10-01T09:43:23.249Z,0.75
2022-10-01T09:45:52.004Z,0.88
2022-10-01T09:48:30.232Z,1.00
2022-10-01T09:51:02.869Z,0.95
2022-10-01T09:53:37.837Z,2.80
2022-10-01T09:56:14.506Z,6.85
2022-10-01T09:58:47.642Z,5.40
2022-10-01T10:01:24.503Z,3.65
2022-10-01T10:03:57.364Z,4.93
2022-10-01T10:06:30.533Z,5.30
2022-10-01T10:09:00.296Z,2.70
2022-10-01T10:11:32.263Z,2.17
2022-10-01T10:14:03.426Z,1.33
2022-10-01T10:16:35.208Z,0.75
2022-10-01T10:19:09.538Z,1.05
2022-10-01T10:21:37.966Z,0.77
2022-10-01T10:24:08.007Z,1.10
2022-10-01T10:26:39.390Z,1.20
2022-10-01T10:29:09.568Z,1.20
2022-10-01T10:31:42.576Z,1.25
2022-10-01T10:34:16.742Z,1.33
2022-10-01T10:36:46.626Z,1.35
2022-10-01T10:39:20.896Z,1.00
2022-10-01T10:41:52.674Z,1.73
2022-10-01T10:44:24.260Z,2.15
2022-10-01T10:46:54.953Z,2.20
2022-10-01T10:49:29.444Z,1.42
2022-10-01T10:52:00.755Z,2.17
2022-10-01T10:54:32.413Z,1.77
2022-10-01T10:57:03.796Z,1.50
2022-10-01T10:59:33.456Z,1.52
2022-10-01T11:02:03.525Z,1.80
2022-10-01T11:04:40.711Z,1.88
2022-10-01T11:07:10.856Z,2.15
2022-10-01T11:09:56.971Z,1.90
2022-10-01T11:12:40.723Z,1.73
2022-10-01T11:15:26.145Z,1.70
2022-10-01T11:18:15.826Z,1.85
2022-10-01T11:20:54.194Z,1.90
2022-10-01T11:23:40.898Z,2.35
2022-10-01T11:26:22.168Z,2.50
2022-10-01T11:29:05.069Z,2.45
2022-10-01T11:31:39.150Z,2.58
2022-10-01T11:34:29.145Z,2.63
2022-10-01T11:37:05.283Z,2.47
2022-10-01T11:39:36.584Z,2.30
2022-10-01T11:42:08.874Z,2.35
2022-10-01T11:44:42.712Z,2.40
2022-10-01T11:47:16.373Z,2.67
2022-10-01T11:49:55.054Z,2.38
2022-10-01T11:52:33.733Z,4.30
2022-10-01T11:55:35.271Z,4.20
2022-10-01T11:58:30.716Z,3.83
2022-10-01T12:01:09.279Z,4.75
2022-10-01T12:04:00.638Z,3.85
2022-10-01T12:06:40.672Z,3.50
2022-10-01T12:09:23.977Z,5.65
2022-10-01T12:12:02.451Z,4.55
2022-10-01T12:14:38.301Z,3.83
2022-10-01T12:17:18.337Z,2.88
2022-10-01T12:19:52.653Z,3.28
2022-10-01T12:22:25.871Z,2.78
2022-10-01T12:24:55.508Z,2.92
2022-10-01T12:27:47.950Z,2.95
2022-10-01T12:30:20.584Z,2.67
2022-10-01T12:33:05.245Z,3.55
2022-10-01T12:35:49.183Z,3.05
2022-10-01T12:38:35.525Z,2.80
2022-10-01T12:41:10.691Z,2.45
2022-10-01T12:44:03.832Z,3.67
2022-10-01T12:46:41.601Z,4.18
2022-10-01T12:49:22.565Z,5.05
2022-10-01T12:51:57.790Z,4.32
2022-10-01T12:54:43.447Z,3.47
2022-10-01T12:57:33.225Z,2.58
2022-10-01T13:00:10.831Z,3.50
2022-10-01T13:03:20.969Z,3.20
2022-10-01T13:06:06.721Z,2.22
2022-10-01T13:08:47.114Z,3.15
2022-10-01T13:11:30.914Z,2.42
2022-10-01T13:14:00.878Z,2.10
2022-10-01T13:16:37.627Z,2.90
2022-10-01T13:19:14.462Z,2.63
2022-10-01T13:22:00.866Z,2.97
2022-10-01T13:24:34.050Z,2.63
2022-10-01T13:27:08.808Z,2.78
2022-10-01T13:29:47.734Z,2.42
2022-10-01T13:32:31.054Z,3.08
2022-10-01T13:35:00.990Z,2.35
2022-10-01T13:37:39.773Z,1.92
2022-10-01T13:40:24.534Z,2.58
2022-10-01T13:42:54.117Z,2.03
2022-10-01T13:45:26.931Z,2.83
2022-10-01T13:48:13.774Z,2.72
2022-10-01T13:50:53.999Z,2.53
2022-10-01T13:53:25.961Z,2.35
2022-10-01T13:55:56.811Z,2.92
2022-10-01T13:58:33.459Z,3.38
2022-10-01T14:01:04.095Z,4.03
2022-10-01T14:03:43.415Z,2.40
2022-10-01T14:06:18.292Z,5.68
2022-10-01T14:08:51.231Z,1.52
2022-10-01T14:11:43.189Z,2.05
2022-10-01T14:14:31.873Z,1.30
2022-10-01T14:17:01.394Z,1.40
2022-10-01T14:19:29.467Z,0.60
2022-10-01T14:22:14.001Z,0.82
2022-10-01T14:24:58.983Z,0.60
2022-10-01T14:27:34.227Z,0.88
2022-10-01T14:30:07.912Z,0.93
2022-10-01T14:32:51.002Z,0.82
2022-10-01T14:35:30.069Z,0.70
2022-10-01T14:38:01.252Z,0.47
2022-10-01T14:40:38.931Z,1.23
2022-10-01T14:43:17.549Z,1.90
2022-10-01T14:45:53.854Z,0.80
2022-10-01T14:48:22.830Z,2.03
2022-10-01T14:50:52.973Z,1.52
2022-10-01T14:53:24.060Z,0.80
2022-10-01T14:55:55.897Z,2.47
2022-10-01T14:58:28.466Z,0.95
2022-10-01T15:00:57.708Z,2.25
2022-10-01T15:03:25.889Z,2.17
2022-10-01T15:06:03.993Z,1.80
2022-10-01T15:08:40.551Z,1.60
2022-10-01T15:11:14.499Z,1.20
2022-10-01T15:13:45.001Z,0.90
2022-10-01T15:16:15.332Z,1.20
2022-10-01T15:18:47.782Z,2.13
2022-10-01T15:21:20.070Z,2.03
2022-10-01T15:23:49.740Z,1.52
2022-10-01T15:26:23.260Z,1.00
2022-10-01T15:28:51.137Z,0.90
2022-10-01T15:31:20.000Z,1.35
2022-10-01T15:33:48.581Z,1.85
2022-10-01T15:36:19.472Z,2.38
2022-10-01T15:38:48.775Z,1.20
2022-10-01T15:41:31.848Z,2.00
2022-10-01T15:44:03.080Z,2.95
2022-10-01T15:46:33.312Z,1.88
2022-10-01T15:49:21.464Z,2.95
2022-10-01T15:52:07.500Z,2.85
2022-10-01T15:54:36.254Z,2.83
2022-10-01T15:57:06.404Z,2.97
2022-10-01T15:59:35.124Z,4.03
2022-10-01T16:02:09.770Z,4.10
2022-10-01T16:04:37.780Z,4.95
2022-10-01T16:07:05.549Z,3.30
2022-10-01T16:09:33.346Z,2.60
2022-10-01T16:12:06.700Z,4.28
2022-10-01T16:14:37.492Z,3.33
2022-10-01T16:17:33.879Z,3.90
2022-10-01T16:20:23.635Z,2.67
2022-10-01T16:22:51.290Z,2.83
2022-10-01T16:25:32.614Z,3.85
2022-10-01T16:28:04.182Z,3.58
2022-10-01T16:30:33.871Z,2.75
2022-10-01T16:33:05.977Z,3.88
2022-10-01T16:35:36.058Z,3.15
2022-10-01T16:38:06.664Z,2.67
2022-10-01T16:40:39.251Z,2.20
2022-10-01T16:43:09.140Z,1.90
2022-10-01T16:45:40.386Z,2.47
2022-10-01T16:48:14.592Z,2.53
2022-10-01T16:50:42.756Z,1.83
2022-10-01T16:53:13.032Z,2.50
2022-10-01T16:55:40.800Z,1.65
2022-10-01T16:58:10.723Z,2.75
2022-10-01T17:00:38.760Z,2.33
2022-10-01T17:03:08.959Z,2.75
2022-10-01T17:05:38.560Z,2.03
2022-10-01T17:08:11.070Z,2.05
2022-10-01T17:10:42.137Z,9.13
2022-10-01T17:13:12.489Z,4.88
2022-10-01T17:15:40.671Z,2.60
2022-10-01T17:18:08.878Z,2.45
2022-10-01T17:20:38.049Z,2.47
2022-10-01T17:23:06.354Z,2.50
2022-10-01T17:25:36.171Z,1.63
2022-10-01T17:28:08.674Z,1.38
2022-10-01T17:30:40.263Z,1.48
2022-10-01T17:33:09.446Z,2.38
2022-10-01T17:35:41.700Z,2.75
2022-10-01T17:38:09.611Z,4.22
2022-10-01T17:40:37.872Z,11.02
2022-10-01T17:43:06.770Z,22.55
2022-10-01T17:45:34.490Z,12.77
2022-10-01T17:48:04.623Z,4.78
2022-10-01T17:50:32.350Z,8.20
2022-10-01T17:53:00.710Z,5.40
2022-10-01T17:55:28.827Z,10.27
2022-10-01T17:57:57.181Z,4.22
2022-10-01T18:00:24.938Z,3.83
2022-10-01T18:02:53.682Z,2.97
2022-10-01T18:05:22.786Z,2.45
2022-10-01T18:07:50.552Z,3.00
2022-10-01T18:10:18.509Z,2.40
2022-10-01T18:12:46.347Z,3.97
2022-10-01T18:15:14.551Z,3.28
2022-10-01T18:17:43.787Z,2.53
2022-10-01T18:20:20.296Z,1.98
2022-10-01T18:22:49.812Z,2.35
2022-10-01T18:25:19.331Z,1.77
2022-10-01T18:27:50.149Z,2.42
2022-10-01T18:30:20.123Z,1.63
2022-10-01T18:32:51.877Z,1.73
2022-10-01T18:35:23.407Z,1.58
2022-10-01T18:37:55.862Z,1.75
2022-10-01T18:40:28.242Z,1.58
2022-10-01T18:43:00.905Z,1.40
2022-10-01T18:45:51.381Z,0.75
2022-10-01T18:48:44.273Z,1.20
2022-10-01T18:51:21.557Z,1.20
2022-10-01T18:54:07.040Z,1.35
2022-10-01T18:56:36.733Z,1.83
2022-10-01T18:59:27.014Z,1.75
2022-10-01T19:02:06.220Z,1.95
2022-10-01T19:04:47.280Z,1.65
2022-10-01T19:07:29.905Z,1.65
2022-10-01T19:10:11.980Z,3.60
2022-10-01T19:12:50.539Z,1.88
2022-10-01T19:15:27.958Z,1.08
2022-10-01T19:18:16.205Z,1.05
2022-10-01T19:20:56.792Z,1.50
2022-10-01T19:23:46.670Z,1.58
2022-10-01T19:26:23.432Z,2.22
2022-10-01T19:29:03.788Z,1.55
2022-10-01T19:31:36.906Z,1.55
2022-10-01T19:34:10.815Z,1.95
2022-10-01T19:36:42.243Z,1.70
2022-10-01T19:39:16.930Z,2.13
2022-10-01T19:41:52.225Z,2.25
2022-10-01T19:44:28.182Z,1.80
2022-10-01T19:47:05.294Z,2.97
2022-10-01T19:49:36.231Z,1.88
2022-10-01T19:52:12.540Z,2.13
2022-10-01T19:54:45.944Z,1.67
2022-10-01T19:57:22.469Z,1.77
2022-10-01T19:59:50.598Z,1.65
2022-10-01T20:02:32.888Z,2.35
2022-10-01T20:05:05.727Z,2.30
2022-10-01T20:07:42.135Z,2.63
2022-10-01T20:10:19.979Z,1.60
2022-10-01T20:12:59.749Z,2.47
2022-10-01T20:15:40.400Z,1.67
2022-10-01T20:18:18.961Z,1.42
2022-10-01T20:20:57.422Z,2.10
2022-10-01T20:23:38.710Z,1.42
2022-10-01T20:26:16.559Z,2.78
2022-10-01T20:28:55.433Z,1.73
2022-10-01T20:31:29.169Z,1.55
2022-10-01T20:34:06.920Z,1.05
2022-10-01T20:36:41.837Z,1.75
2022-10-01T20:39:18.201Z,3.65
2022-10-01T20:41:49.131Z,3.10
2022-10-01T20:44:22.630Z,2.33
2022-10-01T20:46:54.502Z,1.65
2022-10-01T20:49:29.617Z,1.65
2022-10-01T20:52:05.270Z,2.13
2022-10-01T20:54:37.441Z,1.50
2022-10-01T20:57:15.207Z,2.03
2022-10-01T20:59:47.271Z,2.42
2022-10-01T21:02:26.893Z,1.42
2022-10-01T21:05:01.854Z,2.55
2022-10-01T21:07:37.326Z,1.92
2022-10-01T21:10:15.006Z,2.08
2022-10-01T21:12:51.630Z,1.58
2022-10-01T21:15:24.607Z,1.67
2022-10-01T21:18:00.798Z,2.47
2022-10-01T21:20:55.580Z,2.00
2022-10-01T21:23:38.122Z,1.50
2022-10-01T21:26:14.907Z,2.20
2022-10-01T21:29:22.015Z,1.90
2022-10-01T21:32:03.571Z,1.30
2022-10-01T21:34:43.460Z,1.23
2022-10-01T21:37:16.266Z,1.63
2022-10-01T21:39:56.869Z,1.80
2022-10-01T21:42:36.003Z,1.70
2022-10-01T21:45:17.296Z,1.33
2022-10-01T21:48:03.535Z,1.40
2022-10-01T21:50:43.636Z,1.40
2022-10-01T21:53:28.835Z,1.40
2022-10-01T21:56:14.576Z,2.67
2022-10-01T21:58:55.463Z,1.98
2022-10-01T22:01:35.323Z,2.38
2022-10-01T22:04:13.837Z,2.05
2022-10-01T22:06:46.739Z,2.13
2022-10-01T22:09:19.749Z,1.42
2022-10-01T22:11:50.657Z,1.88
2022-10-01T22:14:20.121Z,1.15
2022-10-01T22:16:52.521Z,2.38
2022-10-01T22:19:26.951Z,1.60
2022-10-01T22:22:00.124Z,1.85
2022-10-01T22:24:33.120Z,2.40
2022-10-01T22:27:07.775Z,1.45
2022-10-01T22:29:41.358Z,1.58
2022-10-01T22:32:13.293Z,1.35
2022-10-01T22:34:47.217Z,1.85
2022-10-01T22:37:18.451Z,1.33
2022-10-01T22:39:51.146Z,1.50
2022-10-01T22:42:25.184Z,1.27
2022-10-01T22:44:55.973Z,1.50
2022-10-01T22:47:55.165Z,1.27
2022-10-01T22:50:45.328Z,1.83
2022-10-01T22:53:30.268Z,1.38
2022-10-01T22:55:58.711Z,1.30
2022-10-01T22:58:41.953Z,1.45
2022-10-01T23:01:24.284Z,1.58
2022-10-01T23:04:08.955Z,1.23
2022-10-01T23:06:43.049Z,1.25
2022-10-01T23:09:16.427Z,1.08
2022-10-01T23:11:54.628Z,1.40
2022-10-01T23:14:50.349Z,1.25
2022-10-01T23:17:23.850Z,1.17
2022-10-01T23:20:04.459Z,1.70
2022-10-01T23:22:49.562Z,1.25
2022-10-01T23:25:23.754Z,1.80
2022-10-01T23:28:03.348Z,1.67
2022-10-01T23:30:42.922Z,1.60
2022-10-01T23:33:29.940Z,1.92
2022-10-01T23:36:04.909Z,1.63
2022-10-01T23:38:57.304Z,1.98
2022-10-01T23:41:33.477Z,1.33
2022-10-01T23:44:08.927Z,1.33
2022-10-01T23:46:39.668Z,1.48
2022-10-01T23:49:13.354Z,1.33
2022-10-01T23:51:47.514Z,2.25
2022-10-01T23:54:24.723Z,1.83
2022-10-01T23:56:56.502Z,1.30
2022-10-01T23:59:29.624Z,1.35
